createdAt,value
2022-08-17T00:00:01.257Z,98133.13
2022-08-17T00:05:36.990Z,98128.04
2022-08-17T00:10:44.534Z,98130.08
2022-08-17T00:16:21.704Z,98126.06
2022-08-17T00:22:32.677Z,98128.70
2022-08-17T00:27:44.407Z,98131.63
2022-08-17T00:33:14.716Z,98141.85
2022-08-17T00:38:29.640Z,98144.25
2022-08-17T00:43:54.310Z,98149.34
2022-08-17T00:49:20.028Z,98152.46
2022-08-17T00:55:01.209Z,98150.13
2022-08-17T01:02:02.092Z,98144.90
2022-08-17T01:07:37.970Z,98141.75
2022-08-17T01:13:41.083Z,98143.30
2022-08-17T01:19:27.195Z,98140.90
2022-08-17T01:25:02.933Z,98138.34
2022-08-17T01:31:01.099Z,98140.02
2022-08-17T01:36:34.186Z,98141.34
2022-08-17T01:42:44.054Z,98143.13
2022-08-17T01:48:48.593Z,98146.15
2022-08-17T01:54:37.968Z,98146.20
2022-08-17T02:00:48.322Z,98144.05
2022-08-17T02:06:53.186Z,98143.77
2022-08-17T02:12:47.940Z,98140.54
2022-08-17T02:19:11.472Z,98140.90
2022-08-17T02:25:28.790Z,98140.23
2022-08-17T02:31:33.154Z,98135.59
2022-08-17T02:37:36.109Z,98139.73
2022-08-17T02:44:53.141Z,98138.17
2022-08-17T02:51:40.907Z,98147.45
2022-08-17T02:57:56.411Z,98153.45
2022-08-17T03:04:08.646Z,98148.66
2022-08-17T03:10:35.101Z,98149.83
2022-08-17T03:17:38.953Z,98148.55
2022-08-17T03:24:08.720Z,98153.39
2022-08-17T03:30:27.144Z,98154.98
2022-08-17T03:37:37.209Z,98158.66
2022-08-17T03:44:09.486Z,98166.23
2022-08-17T03:50:18.594Z,98170.73
2022-08-17T03:57:02.907Z,98168.31
2022-08-17T04:03:26.712Z,98171.14
2022-08-17T04:10:33.883Z,98177.23
2022-08-17T04:16:25.953Z,98187.68
2022-08-17T04:22:31.346Z,98200.77
2022-08-17T04:27:50.292Z,98206.98
2022-08-17T04:33:29.734Z,98206.89
2022-08-17T04:39:05.362Z,98214.44
2022-08-17T04:44:37.397Z,98219.63
2022-08-17T04:49:53.695Z,98219.55
2022-08-17T04:55:16.148Z,98226.08
2022-08-17T05:00:45.698Z,98233.30
2022-08-17T05:06:22.838Z,98232.23
2022-08-17T05:11:39.945Z,98237.45
2022-08-17T05:17:36.169Z,98240.69
2022-08-17T05:23:07.955Z,98247.77
2022-08-17T05:28:34.175Z,98245.26
2022-08-17T05:34:09.647Z,98243.40
2022-08-17T05:39:29.473Z,98240.56
2022-08-17T05:45:39.988Z,98242.61
2022-08-17T05:51:34.650Z,98241.10
2022-08-17T05:57:54.212Z,98242.90
2022-08-17T06:03:22.042Z,98241.56
2022-08-17T06:09:33.782Z,98239.84
2022-08-17T06:15:08.089Z,98246.41
2022-08-17T06:20:14.503Z,98246.50
2022-08-17T06:25:31.880Z,98245.04
2022-08-17T06:31:07.751Z,98246.48
2022-08-17T06:36:48.101Z,98241.82
2022-08-17T06:42:54.759Z,98241.44
2022-08-17T06:48:27.496Z,98240.56
2022-08-17T06:53:42.140Z,98236.08
2022-08-17T06:58:59.684Z,98234.74
2022-08-17T07:04:35.595Z,98239.29
2022-08-17T07:09:43.605Z,98249.02
2022-08-17T07:15:11.345Z,98246.33
2022-08-17T07:20:25.100Z,98251.30
2022-08-17T07:25:32.522Z,98255.89
2022-08-17T07:30:59.554Z,98258.67
2022-08-17T07:36:13.230Z,98262.04
2022-08-17T07:41:57.826Z,98265.93
2022-08-17T07:47:24.032Z,98266.69
2022-08-17T07:52:50.307Z,98268.74
2022-08-17T07:58:02.164Z,98269.21
2022-08-17T08:03:44.071Z,98267.46
2022-08-17T08:09:40.829Z,98266.44
2022-08-17T08:15:02.810Z,98273.56
2022-08-17T08:20:42.480Z,98270.88
2022-08-17T08:26:02.100Z,98272.52
2022-08-17T08:31:46.420Z,98270.30
2022-08-17T08:37:12.572Z,98265.74
2022-08-17T08:42:43.072Z,98275.79
2022-08-17T08:48:05.300Z,98276.72
2022-08-17T08:53:52.897Z,98277.92
2022-08-17T08:59:30.162Z,98277.90
2022-08-17T09:05:15.993Z,98280.04
2022-08-17T09:10:56.926Z,98281.68
2022-08-17T09:16:06.993Z,98284.77
2022-08-17T09:21:48.594Z,98282.34
2022-08-17T09:27:22.846Z,98283.55
2022-08-17T09:33:04.289Z,98279.66
2022-08-17T09:38:52.419Z,98284.13
2022-08-17T09:44:23.263Z,98280.64
2022-08-17T09:49:44.856Z,98282.05
2022-08-17T09:54:52.688Z,98278.13
2022-08-17T10:00:34.319Z,98274.89
2022-08-17T10:06:08.532Z,98276.02
2022-08-17T10:11:19.959Z,98274.44
2022-08-17T10:16:52.414Z,98271.11
2022-08-17T10:22:35.364Z,98273.23
2022-08-17T10:28:19.781Z,98276.79
2022-08-17T10:33:29.167Z,98279.05
2022-08-17T10:39:00.295Z,98272.88
2022-08-17T10:44:38.282Z,98269.71
2022-08-17T10:49:47.842Z,98267.06
2022-08-17T10:55:09.871Z,98266.41
2022-08-17T11:00:43.619Z,98264.14
2022-08-17T11:06:06.997Z,98264.15
2022-08-17T11:11:49.878Z,98264.08
2022-08-17T11:17:41.615Z,98271.53
2022-08-17T11:23:24.001Z,98274.36
2022-08-17T11:28:35.415Z,98267.13
2022-08-17T11:34:06.849Z,98264.05
2022-08-17T11:39:47.403Z,98258.60
2022-08-17T11:45:54.023Z,98254.10
2022-08-17T11:51:44.924Z,98251.81
2022-08-17T11:56:52.970Z,98247.59
2022-08-17T12:02:20.136Z,98240.23
2022-08-17T12:07:23.827Z,98237.69
2022-08-17T12:12:37.175Z,98233.95
2022-08-17T12:17:46.880Z,98234.32
2022-08-17T12:23:18.674Z,98235.91
2022-08-17T12:28:35.368Z,98234.08
2022-08-17T12:33:45.397Z,98234.46
2022-08-17T12:39:13.306Z,98241.13
2022-08-17T12:44:24.385Z,98236.94
2022-08-17T12:49:35.676Z,98229.70
2022-08-17T12:55:05.436Z,98235.02
2022-08-17T13:00:33.447Z,98223.77
2022-08-17T13:06:06.519Z,98223.65
2022-08-17T13:11:35.157Z,98218.55
2022-08-17T13:16:37.882Z,98220.98
2022-08-17T13:21:59.303Z,98218.01
2022-08-17T13:27:08.319Z,98212.77
2022-08-17T13:32:33.636Z,98216.45
2022-08-17T13:37:36.739Z,98215.40
2022-08-17T13:42:52.667Z,98209.02
2022-08-17T13:48:32.092Z,98214.48
2022-08-17T13:54:10.389Z,98219.90
2022-08-17T13:59:52.917Z,98211.42
2022-08-17T14:05:06.456Z,98213.83
2022-08-17T14:10:20.825Z,98218.16
2022-08-17T14:15:53.947Z,98217.31
2022-08-17T14:20:48.504Z,98218.59
2022-08-17T14:26:13.556Z,98219.19
2022-08-17T14:31:19.899Z,98217.27
2022-08-17T14:36:49.501Z,98220.16
2022-08-17T14:42:10.401Z,98217.89
2022-08-17T14:47:15.926Z,98215.92
2022-08-17T14:52:21.853Z,98217.98
2022-08-17T14:57:34.168Z,98216.59
2022-08-17T15:02:46.135Z,98213.90
2022-08-17T15:08:08.427Z,98213.97
2022-08-17T15:13:30.465Z,98204.98
2022-08-17T15:18:49.483Z,98212.64
2022-08-17T15:23:57.776Z,98217.83
2022-08-17T15:29:42.153Z,98214.18
2022-08-17T15:34:59.244Z,98216.59
2022-08-17T15:40:06.361Z,98218.48
2022-08-17T15:45:58.811Z,98209.77
2022-08-17T15:51:33.358Z,98209.34
2022-08-17T15:56:42.067Z,98207.43
2022-08-17T16:03:13.028Z,98205.67
2022-08-17T16:07:17.636Z,98200.91
2022-08-17T16:12:22.026Z,98205.98
2022-08-17T16:17:39.143Z,98201.84
2022-08-17T16:22:46.496Z,98200.50
2022-08-17T16:27:55.328Z,98198.96
2022-08-17T16:33:03.928Z,98205.90
2022-08-17T16:38:07.378Z,98208.86
2022-08-17T16:43:18.836Z,98215.83
2022-08-17T16:48:34.403Z,98218.64
2022-08-17T16:53:44.398Z,98220.98
2022-08-17T16:59:31.054Z,98222.49
2022-08-17T17:05:06.771Z,98222.84
2022-08-17T17:10:22.853Z,98227.70
2022-08-17T17:16:06.512Z,98231.20
2022-08-17T17:22:45.026Z,98227.27
2022-08-17T17:28:46.564Z,98232.06
2022-08-17T17:34:18.818Z,98237.70
2022-08-17T17:39:44.789Z,98245.09
2022-08-17T17:45:29.789Z,98248.15
2022-08-17T17:51:58.152Z,98247.75
2022-08-17T17:57:14.015Z,98250.55
2022-08-17T18:02:53.383Z,98253.60
2022-08-17T18:08:21.066Z,98254.30
2022-08-17T18:14:00.452Z,98248.61
2022-08-17T18:19:26.443Z,98246.60
2022-08-17T18:24:41.361Z,98255.42
2022-08-17T18:30:53.150Z,98255.69
2022-08-17T18:36:44.839Z,98268.11
2022-08-17T18:42:46.585Z,98272.54
2022-08-17T18:48:20.086Z,98272.98
2022-08-17T18:53:53.283Z,98275.44
2022-08-17T18:59:41.462Z,98280.49
2022-08-17T19:06:13.557Z,98291.30
2022-08-17T19:11:50.270Z,98300.58
2022-08-17T19:17:30.018Z,98302.71
2022-08-17T19:23:53.778Z,98308.00
2022-08-17T19:30:07.844Z,98313.39
2022-08-17T19:36:23.126Z,98307.89
2022-08-17T19:43:01.640Z,98302.52
2022-08-17T19:49:49.467Z,98301.77
2022-08-17T19:55:52.439Z,98305.94
2022-08-17T20:01:14.046Z,98320.86
2022-08-17T20:06:28.961Z,98322.48
2022-08-17T20:11:44.376Z,98322.20
2022-08-17T20:16:50.218Z,98315.59
2022-08-17T20:22:18.439Z,98309.08
2022-08-17T20:27:31.855Z,98305.36
2022-08-17T20:32:58.364Z,98293.70
2022-08-17T20:38:31.716Z,98290.83
2022-08-17T20:43:33.661Z,98289.00
2022-08-17T20:48:52.325Z,98288.02
2022-08-17T20:54:29.506Z,98292.57
2022-08-17T20:59:43.326Z,98299.89
2022-08-17T21:04:56.995Z,98305.92
2022-08-17T21:10:23.770Z,98310.67
2022-08-17T21:15:48.698Z,98306.54
2022-08-17T21:21:33.250Z,98294.36
2022-08-17T21:27:20.404Z,98293.67
2022-08-17T21:32:30.128Z,98292.21
2022-08-17T21:38:13.532Z,98288.30
2022-08-17T21:43:47.572Z,98284.50
2022-08-17T21:49:14.341Z,98274.91
2022-08-17T21:54:44.494Z,98266.42
2022-08-17T22:00:26.619Z,98264.30
2022-08-17T22:06:01.659Z,98267.40
2022-08-17T22:12:07.621Z,98261.18
2022-08-17T22:17:58.956Z,98259.36
2022-08-17T22:24:05.670Z,98244.02
2022-08-17T22:30:11.869Z,98245.00
2022-08-17T22:36:18.544Z,98244.36
2022-08-17T22:42:12.700Z,98251.36
2022-08-17T22:47:39.614Z,98254.24
2022-08-17T22:54:00.124Z,98272.88
2022-08-17T23:00:01.139Z,98289.27
2022-08-17T23:07:03.864Z,98300.17
2022-08-17T23:12:29.678Z,98308.38
2022-08-17T23:18:17.939Z,98308.91
2022-08-17T23:24:10.186Z,98305.28
2022-08-17T23:30:55.243Z,98303.64
2022-08-17T23:37:04.379Z,98300.69
2022-08-17T23:43:28.424Z,98308.23
2022-08-17T23:48:48.380Z,98299.98
2022-08-17T23:54:21.415Z,98302.85
